createdAt,value
2022-12-18T00:00:19.212Z,5.55
2022-12-18T00:02:47.493Z,5.15
2022-12-18T00:05:15.866Z,6.00
2022-12-18T00:07:48.565Z,4.60
2022-12-18T00:10:18.284Z,4.63
2022-12-18T00:12:47.463Z,3.20
2022-12-18T00:15:15.970Z,10.80
2022-12-18T00:17:54.697Z,6.90
2022-12-18T00:20:26.787Z,8.90
2022-12-18T00:22:59.222Z,4.43
2022-12-18T00:25:29.484Z,6.07
2022-12-18T00:28:01.103Z,14.55
2022-12-18T00:30:30.279Z,3.80
2022-12-18T00:33:01.727Z,9.87
2022-12-18T00:35:30.587Z,7.55
2022-12-18T00:38:01.590Z,5.95
2022-12-18T00:40:29.761Z,9.02
2022-12-18T00:42:56.904Z,6.47
2022-12-18T00:45:27.395Z,5.43
2022-12-18T00:47:58.462Z,5.97
2022-12-18T00:50:36.731Z,6.65
2022-12-18T00:53:09.507Z,7.63
2022-12-18T00:55:39.271Z,6.40
2022-12-18T00:58:07.941Z,8.05
2022-12-18T01:00:36.293Z,11.05
2022-12-18T01:03:05.229Z,10.75
2022-12-18T01:05:33.445Z,8.38
2022-12-18T01:08:04.733Z,7.82
2022-12-18T01:10:35.531Z,9.35
2022-12-18T01:13:05.098Z,8.30
2022-12-18T01:15:35.295Z,7.20
2022-12-18T01:18:03.784Z,6.40
2022-12-18T01:20:32.264Z,6.65
2022-12-18T01:23:02.645Z,6.15
2022-12-18T01:25:30.861Z,5.35
2022-12-18T01:28:00.512Z,5.32
2022-12-18T01:30:28.744Z,5.10
2022-12-18T01:32:56.938Z,5.97
2022-12-18T01:35:25.627Z,7.80
2022-12-18T01:37:56.996Z,7.38
2022-12-18T01:40:25.563Z,7.07
2022-12-18T01:42:54.611Z,7.95
2022-12-18T01:45:34.845Z,6.28
2022-12-18T01:48:05.674Z,6.82
2022-12-18T01:50:38.236Z,9.98
2022-12-18T01:53:13.754Z,5.53
2022-12-18T01:55:45.729Z,6.72
2022-12-18T01:58:14.048Z,16.88
2022-12-18T02:00:43.912Z,15.13
2022-12-18T02:03:13.164Z,7.18
2022-12-18T02:05:50.067Z,7.22
2022-12-18T02:08:24.181Z,6.25
2022-12-18T02:11:08.079Z,8.77
2022-12-18T02:13:44.563Z,13.82
2022-12-18T02:16:23.901Z,11.43
2022-12-18T02:18:58.817Z,12.32
2022-12-18T02:21:36.697Z,17.08
2022-12-18T02:24:22.896Z,16.02
2022-12-18T02:26:55.644Z,15.38
2022-12-18T02:29:29.029Z,10.70
2022-12-18T02:32:00.082Z,6.78
2022-12-18T02:34:32.196Z,14.35
2022-12-18T02:37:06.616Z,10.55
2022-12-18T02:39:36.481Z,9.52
2022-12-18T02:42:09.034Z,22.38
2022-12-18T02:44:43.894Z,15.65
2022-12-18T02:47:13.600Z,8.68
2022-12-18T02:49:52.106Z,5.03
2022-12-18T02:52:31.079Z,9.73
2022-12-18T02:55:08.283Z,6.60
2022-12-18T02:57:44.826Z,10.40
2022-12-18T03:00:18.738Z,6.65
2022-12-18T03:02:51.255Z,7.28
2022-12-18T03:05:23.329Z,9.27
2022-12-18T03:07:59.132Z,13.73
2022-12-18T03:10:35.475Z,13.73
2022-12-18T03:13:08.448Z,13.90
2022-12-18T03:15:41.069Z,11.60
2022-12-18T03:18:14.038Z,17.15
2022-12-18T03:20:44.639Z,7.75
2022-12-18T03:23:18.143Z,21.45
2022-12-18T03:25:48.755Z,13.18
2022-12-18T03:28:22.971Z,11.70
2022-12-18T03:30:56.229Z,15.88
2022-12-18T03:33:30.075Z,9.65
2022-12-18T03:35:58.727Z,6.47
2022-12-18T03:38:29.152Z,9.98
2022-12-18T03:41:08.627Z,15.30
2022-12-18T03:43:49.980Z,7.93
2022-12-18T03:46:26.877Z,18.20
2022-12-18T03:49:02.427Z,9.98
2022-12-18T03:51:41.822Z,10.25
2022-12-18T03:54:12.347Z,21.23
2022-12-18T03:56:44.515Z,12.60
2022-12-18T03:59:19.947Z,14.68
2022-12-18T04:01:50.562Z,13.88
2022-12-18T04:04:21.062Z,13.35
2022-12-18T04:06:51.506Z,12.07
2022-12-18T04:09:21.609Z,16.75
2022-12-18T04:11:51.488Z,12.93
2022-12-18T04:14:24.715Z,11.77
2022-12-18T04:16:53.005Z,13.32
2022-12-18T04:19:21.152Z,13.32
2022-12-18T04:21:49.287Z,12.57
2022-12-18T04:24:19.378Z,14.65
2022-12-18T04:26:47.662Z,8.75
2022-12-18T04:29:15.973Z,14.23
2022-12-18T04:31:46.691Z,9.60
2022-12-18T04:34:15.240Z,15.68
2022-12-18T04:36:43.861Z,13.23
2022-12-18T04:39:12.256Z,19.17
2022-12-18T04:41:40.649Z,18.52
2022-12-18T04:44:15.904Z,12.70
2022-12-18T04:46:46.385Z,16.88
2022-12-18T04:49:14.664Z,14.07
2022-12-18T04:51:43.499Z,16.67
2022-12-18T04:54:11.631Z,18.00
2022-12-18T04:56:39.876Z,16.38
2022-12-18T04:59:10.544Z,22.15
2022-12-18T05:01:38.858Z,20.20
2022-12-18T05:04:08.594Z,18.08
2022-12-18T05:06:37.085Z,14.88
2022-12-18T05:09:06.685Z,11.95
2022-12-18T05:11:36.543Z,22.33
2022-12-18T05:14:04.866Z,19.30
2022-12-18T05:16:40.830Z,16.02
2022-12-18T05:19:16.555Z,16.52
2022-12-18T05:21:47.376Z,19.35
2022-12-18T05:24:17.831Z,15.88
2022-12-18T05:26:46.687Z,14.63
2022-12-18T05:29:19.006Z,18.60
2022-12-18T05:31:49.017Z,19.77
2022-12-18T05:34:18.623Z,15.25
2022-12-18T05:36:48.159Z,13.82
2022-12-18T05:39:16.345Z,19.52
2022-12-18T05:41:44.600Z,13.40
2022-12-18T05:44:12.745Z,13.52
2022-12-18T05:46:44.099Z,15.77
2022-12-18T05:49:12.660Z,16.95
2022-12-18T05:51:42.662Z,11.60
2022-12-18T05:54:10.875Z,19.05
2022-12-18T05:56:41.053Z,13.50
2022-12-18T05:59:12.393Z,10.55
2022-12-18T06:01:40.840Z,18.88
2022-12-18T06:04:11.234Z,14.77
2022-12-18T06:06:39.601Z,15.48
2022-12-18T06:09:10.692Z,15.57
2022-12-18T06:11:39.355Z,25.45
2022-12-18T06:14:08.732Z,13.85
2022-12-18T06:16:37.456Z,9.90
2022-12-18T06:19:07.363Z,14.25
2022-12-18T06:21:40.047Z,15.80
2022-12-18T06:24:09.901Z,10.93
2022-12-18T06:26:40.798Z,13.45
2022-12-18T06:29:08.897Z,13.80
2022-12-18T06:31:37.036Z,8.00
2022-12-18T06:34:06.162Z,17.75
2022-12-18T06:36:34.393Z,10.32
2022-12-18T06:39:02.509Z,19.27
2022-12-18T06:41:32.424Z,14.40
2022-12-18T06:44:01.785Z,14.75
2022-12-18T06:46:29.925Z,9.75
2022-12-18T06:48:58.397Z,7.82
2022-12-18T06:51:28.187Z,14.05
2022-12-18T06:53:56.630Z,12.80
2022-12-18T06:56:24.809Z,16.63
2022-12-18T06:58:54.615Z,9.15
2022-12-18T07:01:24.521Z,17.17
2022-12-18T07:03:55.734Z,12.70
2022-12-18T07:06:26.238Z,8.55
2022-12-18T07:08:55.925Z,11.57
2022-12-18T07:11:24.290Z,11.43
2022-12-18T07:13:54.965Z,7.88
2022-12-18T07:16:26.363Z,14.55
2022-12-18T07:18:55.023Z,13.25
2022-12-18T07:21:24.114Z,10.95
2022-12-18T07:23:52.390Z,8.00
2022-12-18T07:26:22.655Z,6.78
2022-12-18T07:28:51.443Z,6.55
2022-12-18T07:31:23.677Z,13.93
2022-12-18T07:33:52.455Z,10.70
2022-12-18T07:36:22.243Z,12.27
2022-12-18T07:38:51.180Z,10.68
2022-12-18T07:41:21.299Z,10.68
2022-12-18T07:43:50.032Z,10.10
2022-12-18T07:46:21.444Z,11.65
2022-12-18T07:48:50.410Z,8.90
2022-12-18T07:51:19.744Z,12.38
2022-12-18T07:53:51.998Z,14.67
2022-12-18T07:56:30.480Z,13.38
2022-12-18T07:59:00.797Z,8.85
2022-12-18T08:01:30.687Z,14.43
2022-12-18T08:03:59.818Z,8.50
2022-12-18T08:06:30.821Z,13.02
2022-12-18T08:08:59.609Z,23.13
2022-12-18T08:11:29.736Z,8.88
2022-12-18T08:16:27.304Z,14.90
2022-12-18T08:18:57.557Z,7.47
2022-12-18T08:23:57.993Z,12.85
2022-12-18T08:26:28.354Z,10.50
2022-12-18T08:28:59.590Z,7.35
2022-12-18T08:31:29.376Z,12.60
2022-12-18T08:34:00.389Z,11.85
2022-12-18T08:36:29.754Z,11.65
2022-12-18T08:39:01.055Z,12.57
2022-12-18T08:41:29.341Z,13.52
2022-12-18T08:44:14.721Z,9.25
2022-12-18T08:46:46.862Z,13.43
2022-12-18T08:49:17.855Z,14.90
2022-12-18T08:51:46.282Z,15.10
2022-12-18T08:54:15.278Z,12.63
2022-12-18T08:56:43.298Z,9.80
2022-12-18T08:59:17.560Z,19.45
2022-12-18T09:01:51.016Z,13.25
2022-12-18T09:04:21.595Z,9.95
2022-12-18T09:06:51.197Z,16.92
2022-12-18T09:09:19.477Z,15.68
2022-12-18T09:11:56.345Z,16.90
2022-12-18T09:14:24.920Z,12.38
2022-12-18T09:16:53.540Z,12.10
2022-12-18T09:19:23.207Z,20.10
2022-12-18T09:21:52.660Z,9.25
2022-12-18T09:24:24.923Z,11.82
2022-12-18T09:26:57.923Z,13.98
2022-12-18T09:29:28.091Z,14.07
2022-12-18T09:31:56.204Z,24.15
2022-12-18T09:34:26.045Z,13.25
2022-12-18T09:36:56.590Z,20.45
2022-12-18T09:39:28.005Z,14.43
2022-12-18T09:41:58.464Z,16.00
2022-12-18T09:44:29.684Z,8.60
2022-12-18T09:47:10.572Z,11.40
2022-12-18T09:49:44.921Z,14.15
2022-12-18T09:52:18.672Z,9.05
2022-12-18T09:54:52.887Z,12.82
2022-12-18T09:57:23.834Z,13.98
2022-12-18T09:59:59.133Z,9.57
2022-12-18T10:02:29.066Z,19.73
2022-12-18T10:05:11.485Z,17.95
2022-12-18T10:07:51.503Z,15.50
2022-12-18T10:10:36.638Z,16.25
2022-12-18T10:13:15.310Z,18.63
2022-12-18T10:16:03.665Z,11.88
2022-12-18T10:18:46.768Z,16.10
2022-12-18T10:21:24.405Z,16.02
2022-12-18T10:24:00.203Z,10.98
2022-12-18T10:26:31.129Z,7.78
2022-12-18T10:29:05.663Z,11.73
2022-12-18T10:31:34.338Z,12.65
2022-12-18T10:34:02.993Z,14.18
2022-12-18T10:36:38.433Z,20.75
2022-12-18T10:39:27.730Z,16.10
2022-12-18T10:42:14.195Z,12.63
2022-12-18T10:44:43.556Z,11.52
2022-12-18T10:47:17.007Z,18.42
2022-12-18T10:49:52.471Z,9.57
2022-12-18T10:52:30.394Z,13.55
2022-12-18T10:55:04.359Z,10.13
2022-12-18T10:57:38.593Z,11.43
2022-12-18T11:00:29.206Z,9.02
2022-12-18T11:02:59.681Z,17.13
2022-12-18T11:05:35.346Z,10.32
2022-12-18T11:08:07.211Z,12.77
2022-12-18T11:10:42.000Z,13.20
2022-12-18T11:13:21.639Z,11.52
2022-12-18T11:15:50.923Z,10.50
2022-12-18T11:18:25.106Z,14.50
2022-12-18T11:20:58.734Z,14.75
2022-12-18T11:23:35.568Z,8.55
2022-12-18T11:26:07.078Z,9.98
2022-12-18T11:28:44.123Z,17.70
2022-12-18T11:31:23.646Z,10.40
2022-12-18T11:34:27.505Z,9.70
2022-12-18T11:36:49.805Z,10.73
2022-12-18T11:39:39.952Z,13.32
2022-12-18T11:42:19.743Z,15.80
2022-12-18T11:44:55.576Z,13.30
2022-12-18T11:47:31.648Z,13.70
2022-12-18T11:50:05.089Z,12.40
2022-12-18T11:52:39.067Z,17.67
2022-12-18T11:55:14.512Z,17.15
2022-12-18T11:57:54.611Z,22.80
2022-12-18T12:00:27.445Z,13.35
2022-12-18T12:03:28.130Z,10.43
2022-12-18T12:06:20.221Z,15.00
2022-12-18T12:09:03.172Z,8.80
2022-12-18T12:11:46.368Z,18.30
2022-12-18T12:14:29.335Z,16.20
2022-12-18T12:17:05.030Z,11.30
2022-12-18T12:19:43.998Z,15.73
2022-12-18T12:22:22.547Z,21.23
2022-12-18T12:25:22.140Z,17.52
2022-12-18T12:28:06.662Z,14.57
2022-12-18T12:30:50.520Z,16.88
2022-12-18T12:33:39.747Z,17.90
2022-12-18T12:36:18.598Z,14.90
2022-12-18T12:38:52.976Z,19.67
2022-12-18T12:41:42.391Z,20.83
2022-12-18T12:44:19.604Z,14.25
2022-12-18T12:46:50.210Z,16.50
2022-12-18T12:49:40.310Z,21.63
2022-12-18T12:52:16.414Z,29.60
2022-12-18T12:54:49.149Z,21.73
2022-12-18T12:57:29.287Z,15.38
2022-12-18T13:02:48.283Z,13.57
2022-12-18T13:05:25.717Z,10.85
2022-12-18T13:08:03.821Z,13.30
2022-12-18T13:10:38.909Z,13.40
2022-12-18T13:13:46.796Z,16.73
2022-12-18T13:16:09.296Z,33.10
2022-12-18T13:18:38.303Z,18.73
2022-12-18T13:21:22.591Z,18.13
2022-12-18T13:23:53.559Z,17.55
2022-12-18T13:27:14.798Z,27.17
2022-12-18T13:29:45.135Z,11.60
2022-12-18T13:32:33.475Z,16.25
2022-12-18T13:35:44.282Z,26.13
2022-12-18T13:38:27.490Z,20.80
2022-12-18T13:40:59.144Z,13.15
2022-12-18T13:43:44.855Z,13.40
2022-12-18T13:46:22.635Z,14.90
2022-12-18T13:48:58.220Z,18.55
2022-12-18T13:51:28.072Z,21.65
2022-12-18T13:54:02.725Z,12.93
2022-12-18T13:56:35.431Z,14.48
2022-12-18T13:59:18.789Z,15.43
2022-12-18T14:01:54.385Z,20.73
2022-12-18T14:04:27.512Z,9.77
2022-12-18T14:07:00.148Z,17.85
2022-12-18T14:09:37.525Z,15.60
2022-12-18T14:12:30.806Z,12.50
2022-12-18T14:14:58.943Z,12.52
2022-12-18T14:17:28.778Z,20.10
2022-12-18T14:19:59.950Z,22.30
2022-12-18T14:22:30.644Z,6.45
2022-12-18T14:25:19.100Z,12.88
2022-12-18T14:27:49.350Z,17.02
2022-12-18T14:30:29.162Z,10.57
2022-12-18T14:33:12.763Z,18.75
2022-12-18T14:35:47.181Z,17.50
2022-12-18T14:38:30.715Z,16.90
2022-12-18T14:41:00.373Z,20.88
2022-12-18T14:43:29.577Z,18.67
2022-12-18T14:46:00.830Z,18.50
2022-12-18T14:48:38.743Z,37.88
2022-12-18T14:51:17.495Z,25.38
2022-12-18T14:53:54.303Z,24.58
2022-12-18T14:56:24.901Z,19.45
2022-12-18T14:59:04.543Z,15.30
2022-12-18T15:01:37.319Z,19.35
2022-12-18T15:04:28.170Z,18.45
2022-12-18T15:07:11.901Z,14.55
2022-12-18T15:09:41.660Z,16.27
2022-12-18T15:12:26.908Z,15.20
2022-12-18T15:14:55.204Z,17.38
2022-12-18T15:17:26.805Z,14.70
2022-12-18T15:20:02.280Z,23.67
2022-12-18T15:22:36.268Z,28.83
2022-12-18T15:25:24.614Z,36.20
2022-12-18T15:27:52.808Z,20.48
2022-12-18T15:30:28.214Z,17.58
2022-12-18T15:33:24.544Z,25.00
2022-12-18T15:35:59.225Z,29.13
2022-12-18T15:38:30.521Z,22.75
2022-12-18T15:41:01.970Z,23.98
2022-12-18T15:43:39.013Z,25.88
2022-12-18T15:46:11.593Z,22.83
2022-12-18T15:48:44.002Z,15.82
2022-12-18T15:51:17.549Z,21.15
2022-12-18T15:53:48.679Z,21.20
2022-12-18T15:56:35.156Z,24.20
2022-12-18T15:59:04.642Z,21.13
2022-12-18T16:01:36.091Z,31.02
2022-12-18T16:04:08.665Z,24.88
2022-12-18T16:06:58.082Z,40.35
2022-12-18T16:09:26.735Z,22.20
2022-12-18T16:11:55.107Z,42.97
2022-12-18T16:14:28.388Z,30.15
2022-12-18T16:17:00.256Z,21.27
2022-12-18T16:19:32.808Z,33.63
2022-12-18T16:22:04.339Z,26.73
2022-12-18T16:24:37.196Z,46.50
2022-12-18T16:27:05.979Z,26.00
2022-12-18T16:29:37.348Z,31.13
2022-12-18T16:32:09.877Z,27.85
2022-12-18T16:34:44.066Z,34.80
2022-12-18T16:37:22.377Z,38.63
2022-12-18T16:39:52.085Z,33.95
2022-12-18T16:42:22.478Z,31.88
2022-12-18T16:44:54.047Z,31.63
2022-12-18T16:47:23.072Z,37.20
2022-12-18T16:49:55.163Z,21.30
2022-12-18T16:52:23.889Z,36.63
2022-12-18T16:54:53.846Z,26.33
2022-12-18T16:57:26.436Z,21.17
2022-12-18T16:59:56.802Z,22.98
2022-12-18T17:02:29.344Z,35.50
2022-12-18T17:05:00.777Z,22.92
2022-12-18T17:07:30.221Z,22.63
2022-12-18T17:10:01.018Z,33.00
2022-12-18T17:12:29.741Z,37.10
2022-12-18T17:15:01.056Z,26.65
2022-12-18T17:17:29.643Z,23.77
2022-12-18T17:20:00.537Z,21.35
2022-12-18T17:22:29.302Z,18.45
2022-12-18T17:25:00.712Z,20.40
2022-12-18T17:27:30.623Z,18.60
2022-12-18T17:29:58.875Z,20.65
2022-12-18T17:32:27.957Z,29.92
2022-12-18T17:34:56.661Z,27.35
2022-12-18T17:37:26.523Z,36.53
2022-12-18T17:39:55.075Z,19.00
2022-12-18T17:42:25.100Z,25.95
2022-12-18T17:44:54.615Z,19.73
2022-12-18T17:47:25.118Z,29.65
2022-12-18T17:49:56.407Z,24.77
2022-12-18T17:52:26.220Z,24.63
2022-12-18T17:54:56.880Z,24.45
2022-12-18T17:57:25.120Z,27.27
2022-12-18T17:59:56.994Z,25.35
2022-12-18T18:02:25.632Z,25.88
2022-12-18T18:04:54.653Z,31.75
2022-12-18T18:07:23.171Z,21.88
2022-12-18T18:09:51.350Z,13.27
2022-12-18T18:12:36.815Z,14.30
2022-12-18T18:15:10.276Z,11.18
2022-12-18T18:17:39.063Z,19.58
2022-12-18T18:20:07.947Z,20.77
2022-12-18T18:22:36.957Z,16.48
2022-12-18T18:25:05.634Z,17.83
2022-12-18T18:27:38.906Z,23.37
2022-12-18T18:30:10.620Z,17.15
2022-12-18T18:32:42.646Z,20.60
2022-12-18T18:35:19.462Z,22.90
2022-12-18T18:37:58.962Z,27.42
2022-12-18T18:40:28.611Z,22.13
2022-12-18T18:42:57.859Z,19.30
2022-12-18T18:45:27.656Z,17.80
2022-12-18T18:47:56.089Z,16.88
2022-12-18T18:50:24.273Z,19.92
2022-12-18T18:52:52.339Z,20.73
2022-12-18T18:55:25.232Z,20.23
2022-12-18T18:57:54.483Z,19.90
2022-12-18T19:00:23.015Z,16.83
2022-12-18T19:02:57.723Z,17.95
2022-12-18T19:05:32.946Z,16.25
2022-12-18T19:08:01.572Z,16.92
2022-12-18T19:10:30.264Z,18.50
2022-12-18T19:13:16.992Z,11.68
2022-12-18T19:15:46.136Z,25.52
2022-12-18T19:18:16.898Z,14.10
2022-12-18T19:20:48.476Z,28.35
2022-12-18T19:23:17.071Z,10.63
2022-12-18T19:25:45.452Z,22.08
2022-12-18T19:28:22.145Z,24.00
2022-12-18T19:30:52.485Z,17.27
2022-12-18T19:33:44.405Z,20.23
2022-12-18T19:36:17.251Z,26.45
2022-12-18T19:38:46.219Z,22.00
2022-12-18T19:41:17.867Z,20.13
2022-12-18T19:43:47.072Z,24.25
2022-12-18T19:46:18.371Z,22.80
2022-12-18T19:48:50.456Z,24.98
2022-12-18T19:51:22.956Z,15.23
2022-12-18T19:53:58.904Z,29.38
2022-12-18T19:56:31.132Z,21.73
2022-12-18T19:59:00.473Z,27.42
2022-12-18T20:01:30.227Z,24.92
2022-12-18T20:04:03.823Z,21.70
2022-12-18T20:06:35.430Z,22.30
2022-12-18T20:09:06.667Z,18.42
2022-12-18T20:11:41.349Z,30.20
2022-12-18T20:14:23.007Z,22.00
2022-12-18T20:16:55.167Z,21.02
2022-12-18T20:19:28.525Z,32.30
2022-12-18T20:21:57.263Z,31.60
2022-12-18T20:24:28.027Z,20.33
2022-12-18T20:27:01.441Z,21.25
2022-12-18T20:29:30.722Z,16.83
2022-12-18T20:31:59.119Z,23.27
2022-12-18T20:34:34.303Z,23.42
2022-12-18T20:37:06.029Z,20.85
2022-12-18T20:39:37.088Z,15.82
2022-12-18T20:42:06.837Z,12.02
2022-12-18T20:44:36.306Z,22.40
2022-12-18T20:47:08.518Z,11.60
2022-12-18T20:49:40.708Z,11.65
2022-12-18T20:52:22.329Z,22.58
2022-12-18T20:54:52.703Z,16.02
2022-12-18T20:57:24.491Z,10.45
2022-12-18T21:00:06.314Z,9.18
2022-12-18T21:02:44.110Z,10.63
2022-12-18T21:05:17.070Z,12.65
2022-12-18T21:07:48.710Z,9.75
2022-12-18T21:10:16.899Z,9.02
2022-12-18T21:12:58.910Z,9.20
2022-12-18T21:15:36.432Z,6.10
2022-12-18T21:18:04.983Z,12.13
2022-12-18T21:20:39.359Z,10.35
2022-12-18T21:23:15.663Z,4.63
2022-12-18T21:25:56.243Z,6.90
2022-12-18T21:28:47.571Z,8.10
2022-12-18T21:31:20.000Z,8.43
2022-12-18T21:33:57.401Z,6.78
2022-12-18T21:36:37.008Z,9.60
2022-12-18T21:39:05.792Z,13.27
2022-12-18T21:41:54.096Z,11.70
2022-12-18T21:44:25.838Z,11.57
2022-12-18T21:46:58.967Z,13.90
2022-12-18T21:49:35.260Z,7.75
2022-12-18T21:52:05.544Z,15.65
2022-12-18T21:54:33.649Z,15.07
2022-12-18T21:57:06.370Z,14.63
2022-12-18T21:59:40.921Z,11.20
2022-12-18T22:02:12.040Z,17.48
2022-12-18T22:04:42.331Z,10.77
2022-12-18T22:07:13.315Z,13.40
2022-12-18T22:09:43.830Z,7.57
2022-12-18T22:12:35.674Z,7.80
2022-12-18T22:15:13.899Z,15.45
2022-12-18T22:17:49.357Z,14.50
2022-12-18T22:20:17.840Z,9.48
2022-12-18T22:22:54.345Z,11.45
2022-12-18T22:25:22.457Z,23.60
2022-12-18T22:28:10.719Z,9.68
2022-12-18T22:30:44.558Z,12.02
2022-12-18T22:33:15.275Z,13.32
2022-12-18T22:35:53.071Z,7.95
2022-12-18T22:38:22.742Z,12.30
2022-12-18T22:40:51.091Z,15.93
2022-12-18T22:43:19.232Z,11.63
2022-12-18T22:45:49.335Z,11.60
2022-12-18T22:48:17.762Z,16.42
2022-12-18T22:50:45.889Z,16.48
2022-12-18T22:53:14.199Z,14.48
2022-12-18T22:55:44.290Z,8.63
2022-12-18T22:58:12.322Z,15.65
2022-12-18T23:00:41.458Z,15.00
2022-12-18T23:03:10.307Z,12.07
2022-12-18T23:05:38.968Z,9.65
2022-12-18T23:08:07.668Z,17.60
2022-12-18T23:10:38.659Z,17.23
2022-12-18T23:13:08.541Z,8.15
2022-12-18T23:15:36.871Z,11.48
2022-12-18T23:18:05.253Z,12.05
2022-12-18T23:20:33.863Z,8.60
2022-12-18T23:23:02.276Z,10.07
2022-12-18T23:25:30.442Z,9.18
2022-12-18T23:27:58.570Z,15.07
2022-12-18T23:30:28.580Z,8.82
2022-12-18T23:32:59.803Z,10.88
2022-12-18T23:35:35.286Z,10.57
2022-12-18T23:38:03.506Z,11.63
2022-12-18T23:40:39.661Z,13.63
2022-12-18T23:43:07.701Z,13.05
2022-12-18T23:45:40.008Z,8.32
2022-12-18T23:48:08.272Z,8.40
2022-12-18T23:50:38.133Z,8.93
2022-12-18T23:53:08.828Z,14.25
2022-12-18T23:55:44.424Z,11.00
2022-12-18T23:58:19.629Z,12.38
